Time;durP1;ratioP1;P1;durP2;ratioP2;P2;SDS_P1;SDS_P2;PMS_P1;PMS_P2;Temp;Humidity;BMP_temperature;BMP_pressure;BME280_temperature;BME280_humidity;BME280_pressure;Samples;Min_cycle;Max_cycle;Signal;HPM_P1;HPM_P2
2021/12/13 00:00:08;;;;;;;29.40;11.73;;;;;;;10.28;97.00;102421.59;5038475;28;20056;-68
2021/12/13 00:02:37;;;;;;;26.30;10.43;;;;;;;10.26;97.19;102426.03;5056863;28;20040;-67
2021/12/13 00:05:19;;;;;;;19.48;10.43;;;;;;;10.28;96.45;102422.38;5038292;28;20102;-67
2021/12/13 00:07:54;;;;;;;20.55;9.40;;;;;;;10.35;96.06;102427.78;5056164;28;20379;-68
2021/12/13 00:10:23;;;;;;;18.42;9.45;;;;;;;10.27;96.64;102418.19;5056682;28;20028;-67
2021/12/13 00:12:58;;;;;;;21.30;8.90;;;;;;;10.27;96.68;102425.94;5038223;28;20021;-66
2021/12/13 00:15:31;;;;;;;18.55;8.52;;;;;;;10.29;96.57;102430.94;5056006;28;20028;-66
2021/12/13 00:18:01;;;;;;;21.92;8.63;;;;;;;10.16;96.97;102432.06;5038030;28;20025;-67
2021/12/13 00:20:37;;;;;;;28.48;10.35;;;;;;;10.11;97.38;102426.53;5055740;28;20099;-67
2021/12/13 00:23:17;;;;;;;19.98;8.18;;;;;;;10.14;96.79;102428.81;5055919;28;20029;-67
2021/12/13 00:25:46;;;;;;;19.77;8.02;;;;;;;10.08;97.21;102436.34;5055896;28;20039;-67
2021/12/13 00:28:15;;;;;;;23.25;8.15;;;;;;;10.10;97.06;102434.44;5055717;28;20031;-68
2021/12/13 00:30:49;;;;;;;15.80;7.22;;;;;;;10.13;96.52;102432.38;5055769;28;20036;-67
2021/12/13 00:33:39;;;;;;;24.35;6.28;;;;;;;10.04;96.62;102432.41;5055893;28;20076;-67
2021/12/13 00:36:24;;;;;;;21.58;6.50;;;;;;;10.09;96.16;102433.59;5037785;28;20032;-66
2021/12/13 00:38:55;;;;;;;14.45;6.18;;;;;;;10.08;95.69;102439.72;5055102;28;20466;-67
2021/12/13 00:41:25;;;;;;;21.42;7.05;;;;;;;10.08;95.79;102446.66;5037663;28;20095;-67
2021/12/13 00:44:03;;;;;;;21.65;6.43;;;;;;;10.12;95.61;102445.41;5055517;28;20058;-67
2021/12/13 00:46:30;;;;;;;17.05;6.00;;;;;;;10.12;95.43;102441.06;5037589;28;20024;-67
2021/12/13 00:48:57;;;;;;;18.85;5.97;;;;;;;10.08;95.63;102442.31;5055396;28;20468;-67
2021/12/13 00:51:48;;;;;;;20.67;7.03;;;;;;;10.15;95.28;102438.19;5055591;28;20029;-67
2021/12/13 00:54:23;;;;;;;17.30;5.35;;;;;;;10.12;94.76;102438.47;5045783;28;20041;-68
2021/12/13 00:57:10;;;;;;;22.05;5.60;;;;;;;10.19;95.28;102443.91;5055254;28;20021;-68
2021/12/13 00:59:48;;;;;;;16.40;5.60;;;;;;;10.14;94.71;102433.97;5055221;28;20028;-68
2021/12/13 01:02:28;;;;;;;16.10;6.55;;;;;;;10.09;95.02;102438.75;5037273;28;20025;-68
2021/12/13 01:05:11;;;;;;;15.68;6.10;;;;;;;10.10;95.48;102449.94;5055401;28;20032;-67
2021/12/13 01:07:58;;;;;;;17.65;7.10;;;;;;;10.07;95.51;102439.84;5055237;28;20029;-67
2021/12/13 01:10:48;;;;;;;17.40;7.47;;;;;;;10.01;95.54;102451.59;5037029;28;20039;-68
2021/12/13 01:13:27;;;;;;;14.77;7.53;;;;;;;10.05;95.66;102455.50;5054884;28;20025;-68
2021/12/13 01:16:14;;;;;;;19.52;8.00;;;;;;;10.02;95.41;102457.56;5054909;28;20435;-68
2021/12/13 01:19:03;;;;;;;16.13;7.45;;;;;;;10.03;95.19;102457.41;5054643;28;20052;-68
2021/12/13 01:21:53;;;;;;;19.63;8.85;;;;;;;9.94;95.75;102464.25;5054779;28;20063;-68
2021/12/13 01:24:41;;;;;;;24.15;8.13;;;;;;;10.00;95.38;102469.81;5054671;28;20029;-67
2021/12/13 01:27:06;;;;;;;17.10;7.88;;;;;;;10.04;95.00;102471.13;5054557;28;20387;-68
2021/12/13 01:29:31;;;;;;;13.23;7.18;;;;;;;9.96;94.76;102471.06;5036778;28;20017;-68
2021/12/13 01:32:03;;;;;;;17.42;7.70;;;;;;;9.94;94.73;102469.41;5036723;28;20492;-68
2021/12/13 01:34:32;;;;;;;13.88;6.93;;;;;;;9.84;95.03;102463.47;5054493;28;20051;-68
2021/12/13 01:37:09;;;;;;;13.40;6.90;;;;;;;9.92;94.72;102480.84;5054459;28;20071;-68
2021/12/13 01:39:38;;;;;;;13.82;6.10;;;;;;;9.83;94.73;102486.84;5054985;28;20017;-68
2021/12/13 01:42:13;;;;;;;16.10;6.22;;;;;;;9.84;94.87;102483.28;5054386;28;20067;-68
2021/12/13 01:44:45;;;;;;;17.02;5.65;;;;;;;9.80;94.97;102479.38;5054221;28;20033;-68
2021/12/13 01:47:15;;;;;;;11.93;5.32;;;;;;;9.81;94.92;102486.16;5054209;28;20138;-68
2021/12/13 01:49:48;;;;;;;13.57;5.15;;;;;;;9.77;94.65;102475.31;5054060;28;20107;-68
2021/12/13 01:52:19;;;;;;;12.90;4.88;;;;;;;9.82;94.21;102483.44;5054752;28;20039;-67
2021/12/13 01:54:45;;;;;;;6.32;3.42;;;;;;;9.79;93.87;102478.56;5036229;28;20086;-68
2021/12/13 01:59:54;;;;;;;12.82;4.05;;;;;;;9.76;94.32;102478.84;5054385;28;20380;-68
2021/12/13 02:02:28;;;;;;;7.38;4.28;;;;;;;9.76;94.24;102481.44;5054074;28;20094;-67
2021/12/13 02:05:04;;;;;;;10.18;4.10;;;;;;;9.79;93.58;102481.16;5036123;28;20094;-67
2021/12/13 02:07:54;;;;;;;10.13;4.07;;;;;;;9.73;94.11;102488.66;5053873;28;20029;-68
2021/12/13 02:10:20;;;;;;;9.50;3.83;;;;;;;9.73;93.86;102494.63;5042609;28;20045;-68
2021/12/13 02:12:47;;;;;;;10.63;3.97;;;;;;;9.74;93.60;102488.50;5053811;28;20075;-68
2021/12/13 02:18:00;;;;;;;10.32;3.75;;;;;;;9.77;93.73;102484.81;5054408;28;20372;-67
2021/12/13 02:20:35;;;;;;;11.55;4.20;;;;;;;9.70;93.39;102485.38;5035572;28;20076;-68
2021/12/13 02:23:00;;;;;;;14.13;4.50;;;;;;;9.64;93.87;102475.63;5054273;28;20456;-68
2021/12/13 02:25:32;;;;;;;10.00;3.95;;;;;;;9.67;93.86;102480.50;5035824;28;20060;-68
2021/12/13 02:28:03;;;;;;;9.77;4.15;;;;;;;9.79;92.87;102477.75;5053883;28;20021;-68
2021/12/13 02:31:11;;;;;;;10.52;4.05;;;;;;;9.74;93.26;102477.34;5053592;28;20017;-67
2021/12/13 02:33:45;;;;;;;9.43;4.00;;;;;;;9.66;93.40;102481.44;5035137;28;20095;-67
2021/12/13 02:36:21;;;;;;;11.00;4.30;;;;;;;9.69;93.18;102477.78;5053571;28;20063;-68
2021/12/13 02:38:49;;;;;;;8.95;4.05;;;;;;;9.69;93.07;102477.78;5035748;28;20021;-68
2021/12/13 02:41:17;;;;;;;9.55;4.10;;;;;;;9.75;92.80;102476.41;5035455;28;20483;-67
2021/12/13 02:43:47;;;;;;;10.50;4.55;;;;;;;9.68;92.78;102474.38;5053963;28;20569;-67
2021/12/13 02:46:13;;;;;;;7.60;4.28;;;;;;;9.68;92.97;102481.31;5035516;28;20025;-68
2021/12/13 02:48:40;;;;;;;8.55;4.15;;;;;;;9.71;92.56;102475.88;5053334;28;20025;-68
2021/12/13 02:51:17;;;;;;;13.75;4.50;;;;;;;9.72;92.64;102474.91;5053281;28;20033;-68
2021/12/13 02:53:53;;;;;;;7.80;4.13;;;;;;;9.68;92.37;102481.31;5053247;28;20021;-67
2021/12/13 02:56:23;;;;;;;10.05;4.40;;;;;;;9.71;92.53;102476.69;5053320;28;20523;-67
2021/12/13 02:58:50;;;;;;;8.85;4.55;;;;;;;9.69;92.84;102477.78;5053218;28;20029;-67
2021/12/13 03:01:19;;;;;;;8.40;4.40;;;;;;;9.74;92.74;102485.91;5053191;28;20082;-67
2021/12/13 03:03:51;;;;;;;11.13;4.47;;;;;;;9.81;91.84;102486.16;5057214;28;20460;-67
2021/12/13 03:06:19;;;;;;;11.68;5.10;;;;;;;9.68;92.44;102489.88;5057348;28;20024;-67
2021/12/13 03:08:49;;;;;;;11.07;5.43;;;;;;;9.73;92.47;102489.47;5057246;28;20376;-67
2021/12/13 03:11:24;;;;;;;10.20;5.40;;;;;;;9.72;92.64;102482.66;5057259;28;20043;-67
2021/12/13 03:14:11;;;;;;;10.23;5.68;;;;;;;9.70;92.71;102487.97;5057173;28;20020;-67
2021/12/13 03:16:44;;;;;;;12.90;6.22;;;;;;;9.71;92.75;102484.41;5057039;28;20537;-67
2021/12/13 03:19:27;;;;;;;11.88;6.10;;;;;;;9.71;93.00;102488.78;5056861;28;20052;-68
2021/12/13 03:22:20;;;;;;;10.25;6.20;;;;;;;9.78;92.07;102487.28;5039184;28;20119;-68
2021/12/13 03:25:10;;;;;;;14.35;7.10;;;;;;;9.74;92.39;102485.09;5057291;28;20025;-67
2021/12/13 03:27:55;;;;;;;16.00;7.75;;;;;;;9.67;92.87;102484.84;5056891;28;20037;-67
2021/12/13 03:30:26;;;;;;;16.55;7.65;;;;;;;9.68;93.08;102482.13;5039069;28;20032;-67
2021/12/13 03:32:56;;;;;;;17.42;7.85;;;;;;;9.69;92.69;102488.91;5038970;28;20033;-67
2021/12/13 03:35:40;;;;;;;13.63;7.97;;;;;;;9.69;92.59;102488.09;5057382;28;20052;-67
2021/12/13 03:38:09;;;;;;;16.98;8.40;;;;;;;9.68;92.63;102482.13;5056703;28;20029;-67
2021/12/13 03:40:35;;;;;;;13.77;8.68;;;;;;;9.61;92.44;102480.22;5056695;28;20422;-67
2021/12/13 03:43:06;;;;;;;17.15;8.50;;;;;;;9.70;92.64;102485.38;5057200;28;20081;-67
2021/12/13 03:45:38;;;;;;;14.68;8.50;;;;;;;9.60;93.44;102478.59;5056925;28;20024;-67
2021/12/13 03:48:05;;;;;;;17.77;8.70;;;;;;;9.70;93.08;102482.00;5056590;28;20379;-67
2021/12/13 03:50:35;;;;;;;16.70;9.00;;;;;;;9.66;92.96;102478.84;5038634;28;20028;-67
2021/12/13 03:53:06;;;;;;;15.43;8.55;;;;;;;9.68;92.55;102481.31;5056484;28;20440;-67
2021/12/13 03:55:33;;;;;;;20.17;9.77;;;;;;;9.73;92.41;102478.31;5038517;28;20025;-67
2021/12/13 03:58:03;;;;;;;17.00;9.85;;;;;;;9.68;92.41;102483.91;5056286;28;20025;-67
2021/12/13 04:00:32;;;;;;;18.05;9.73;;;;;;;9.69;92.88;102476.00;5056717;28;20025;-67
2021/12/13 04:03:00;;;;;;;18.83;9.88;;;;;;;9.67;93.06;102477.91;5056278;28;20029;-67
2021/12/13 04:05:28;;;;;;;19.23;10.38;;;;;;;9.68;93.02;102476.16;5056212;28;20598;-67
2021/12/13 04:07:57;;;;;;;16.52;9.90;;;;;;;9.65;92.93;102481.59;5056164;28;20064;-67
2021/12/13 04:10:24;;;;;;;17.27;10.63;;;;;;;9.68;92.83;102474.38;5056188;28;20159;-67
2021/12/13 04:12:53;;;;;;;15.43;10.30;;;;;;;9.59;93.40;102475.22;5055969;28;20035;-68
2021/12/13 04:15:29;;;;;;;19.73;10.13;;;;;;;9.65;93.13;102476.44;5056080;28;20075;-67
2021/12/13 04:18:12;;;;;;;18.02;10.48;;;;;;;9.72;92.38;102467.16;5056535;28;20025;-67
2021/12/13 04:20:41;;;;;;;14.82;9.73;;;;;;;9.74;92.22;102467.84;5055862;28;20514;-67
2021/12/13 04:23:19;;;;;;;16.30;9.98;;;;;;;9.63;92.69;102463.66;5056482;28;20408;-67
2021/12/13 04:25:49;;;;;;;17.33;10.43;;;;;;;9.56;92.96;102456.63;5037984;28;20029;-67
2021/12/13 04:28:14;;;;;;;17.40;10.65;;;;;;;9.66;92.65;102470.31;5055825;28;20021;-68
2021/12/13 04:30:48;;;;;;;19.73;10.60;;;;;;;9.64;92.73;102467.88;5055955;28;20024;-67
2021/12/13 04:33:23;;;;;;;16.17;10.20;;;;;;;9.62;92.75;102466.38;5055802;28;20634;-67
2021/12/13 04:35:53;;;;;;;19.25;10.80;;;;;;;9.57;93.08;102469.38;5055754;28;20021;-67
2021/12/13 04:38:22;;;;;;;18.02;10.30;;;;;;;9.62;92.64;102467.19;5055623;28;20053;-67
2021/12/13 04:40:52;;;;;;;17.17;11.07;;;;;;;9.62;92.16;102464.63;5037581;28;20025;-67
2021/12/13 04:43:19;;;;;;;17.05;11.05;;;;;;;9.63;92.36;102468.81;5037635;28;20021;-68
2021/12/13 04:45:56;;;;;;;18.90;10.27;;;;;;;9.69;92.11;102467.44;5037532;28;20543;-68
2021/12/13 04:48:28;;;;;;;16.73;10.02;;;;;;;9.68;91.75;102469.22;5037589;28;20032;-67
2021/12/13 04:51:02;;;;;;;18.75;10.18;;;;;;;9.68;92.22;102476.16;5037577;28;20025;-68
2021/12/13 04:53:31;;;;;;;16.25;9.77;;;;;;;9.67;91.84;102477.91;5055318;28;20476;-68
2021/12/13 04:56:04;;;;;;;15.27;10.30;;;;;;;9.69;92.25;102485.50;5055463;28;20405;-67
2021/12/13 04:58:29;;;;;;;17.45;10.23;;;;;;;9.67;91.89;102490.81;5037477;28;20025;-67
2021/12/13 05:00:58;;;;;;;17.13;9.98;;;;;;;9.70;91.49;102479.41;5055282;28;20028;-67
2021/12/13 05:03:36;;;;;;;16.55;9.55;;;;;;;9.67;91.63;102472.75;5037195;28;20032;-67
2021/12/13 05:06:06;;;;;;;15.40;9.27;;;;;;;9.71;91.41;102478.44;5037201;28;20029;-67
2021/12/13 05:08:33;;;;;;;16.67;9.50;;;;;;;9.61;91.74;102470.75;5055099;28;20062;-67
2021/12/13 05:11:05;;;;;;;18.00;10.50;;;;;;;9.68;91.13;102471.00;5054977;28;20033;-67
2021/12/13 05:13:30;;;;;;;13.93;9.18;;;;;;;9.67;91.31;102477.13;5055033;28;20020;-67
2021/12/13 05:16:09;;;;;;;14.70;9.90;;;;;;;9.65;91.08;102477.25;5054895;28;20017;-67
2021/12/13 05:18:44;;;;;;;15.50;9.63;;;;;;;9.72;90.87;102482.66;5036926;28;20017;-67
2021/12/13 05:21:25;;;;;;;16.30;8.95;;;;;;;9.65;90.97;102479.00;5015252;28;20049;-67
2021/12/13 05:24:00;;;;;;;13.80;9.52;;;;;;;9.69;90.77;102486.31;5015188;28;20018;-67
2021/12/13 05:26:56;;;;;;;15.07;9.55;;;;;;;9.67;90.76;102477.91;5014991;28;20026;-67
2021/12/13 05:29:33;;;;;;;18.38;9.63;;;;;;;9.57;91.44;102484.84;5011721;28;20092;-68
2021/12/13 05:32:06;;;;;;;19.35;9.90;;;;;;;9.63;90.87;102489.47;5015013;28;20503;-68
2021/12/13 05:34:43;;;;;;;17.25;9.27;;;;;;;9.65;90.38;102484.97;5014971;28;20033;-68
2021/12/13 05:37:08;;;;;;;12.63;9.27;;;;;;;9.74;90.15;102492.84;5015251;28;20053;-67
2021/12/13 05:39:36;;;;;;;16.58;9.18;;;;;;;9.66;90.25;102493.53;5014737;28;20094;-67
2021/12/13 05:42:11;;;;;;;15.02;9.02;;;;;;;9.74;89.86;102493.66;5014757;28;20033;-68
2021/12/13 05:44:42;;;;;;;16.05;9.60;;;;;;;9.67;90.29;102496.00;5014752;28;20455;-67
2021/12/13 05:47:21;;;;;;;14.02;9.02;;;;;;;9.69;89.80;102488.91;5013370;28;20025;-68
2021/12/13 05:49:47;;;;;;;13.85;8.77;;;;;;;9.63;90.52;102484.28;5014695;28;20049;-68
2021/12/13 05:52:17;;;;;;;17.42;9.00;;;;;;;9.78;89.39;102489.03;5014572;28;20026;-68
2021/12/13 05:54:48;;;;;;;18.85;9.15;;;;;;;9.68;90.00;102489.88;5014517;28;20511;-68
2021/12/13 05:57:30;;;;;;;15.52;8.40;;;;;;;9.68;89.70;102494.22;5014502;28;20040;-68
2021/12/13 06:00:04;;;;;;;12.10;8.40;;;;;;;9.73;89.13;102494.63;5014955;28;20030;-67
2021/12/13 06:03:07;;;;;;;16.55;9.05;;;;;;;9.75;89.26;102497.06;5014536;28;20026;-67
2021/12/13 06:05:37;;;;;;;13.00;8.15;;;;;;;9.74;89.17;102493.66;5014404;28;20025;-68
2021/12/13 06:08:14;;;;;;;15.68;8.75;;;;;;;9.74;88.85;102492.84;5013286;28;20381;-69
2021/12/13 06:10:48;;;;;;;14.10;8.32;;;;;;;9.77;88.71;102500.31;5014333;28;20033;-69
2021/12/13 06:13:46;;;;;;;13.75;8.35;;;;;;;9.76;88.66;102502.09;5014271;28;20037;-69
2021/12/13 06:16:31;;;;;;;14.30;8.23;;;;;;;9.72;89.43;102508.47;5014566;28;20037;-69
2021/12/13 06:19:05;;;;;;;15.18;8.15;;;;;;;9.69;88.74;102503.59;5019644;28;20065;-67
2021/12/13 06:21:40;;;;;;;15.65;8.85;;;;;;;9.71;88.95;102505.06;5035844;28;20028;-68
2021/12/13 06:24:06;;;;;;;12.40;8.55;;;;;;;9.70;88.81;102503.47;5053883;28;20079;-69
2021/12/13 06:26:31;;;;;;;12.90;8.27;;;;;;;9.69;88.98;102511.31;5053701;28;20029;-68
2021/12/13 06:29:00;;;;;;;12.82;8.20;;;;;;;9.78;88.51;102507.09;5053634;28;20099;-68
2021/12/13 06:31:36;;;;;;;13.57;8.38;;;;;;;9.78;88.39;102507.09;5035592;28;20025;-68
2021/12/13 06:34:05;;;;;;;15.50;8.43;;;;;;;9.78;88.00;102515.69;5053565;28;20024;-68
2021/12/13 06:36:49;;;;;;;14.70;8.32;;;;;;;9.81;88.20;102502.50;5034899;28;20078;-68
2021/12/13 06:39:29;;;;;;;18.98;9.05;;;;;;;9.79;87.91;102504.38;5053434;28;20432;-67
2021/12/13 06:42:01;;;;;;;15.20;8.88;;;;;;;9.71;88.11;102507.66;5053564;28;20396;-68
2021/12/13 06:44:45;;;;;;;13.85;9.25;;;;;;;9.78;88.12;102510.53;5053999;28;20020;-68
2021/12/13 06:47:17;;;;;;;15.23;8.60;;;;;;;9.77;87.47;102508.88;5035491;28;20483;-68
2021/12/13 06:49:53;;;;;;;18.13;9.20;;;;;;;9.83;87.39;102516.06;5053409;28;20036;-68
2021/12/13 06:52:26;;;;;;;14.48;8.38;;;;;;;9.93;87.48;102514.28;5053420;28;20017;-68
2021/12/13 06:54:59;;;;;;;14.95;8.38;;;;;;;9.75;87.85;102512.53;5053570;28;20056;-68
2021/12/13 06:57:35;;;;;;;15.60;8.10;;;;;;;9.87;87.13;102525.16;5053610;28;20376;-68
2021/12/13 07:00:07;;;;;;;16.40;8.27;;;;;;;9.90;86.90;102524.09;5035488;28;20025;-68
2021/12/13 07:02:35;;;;;;;13.15;8.35;;;;;;;9.90;86.87;102522.31;5053267;28;20025;-70
2021/12/13 07:05:06;;;;;;;14.38;9.25;;;;;;;9.79;87.17;102517.31;5035341;28;20032;-68
2021/12/13 07:07:47;;;;;;;15.95;9.18;;;;;;;9.80;86.99;102516.34;5053482;28;20021;-68
2021/12/13 07:10:18;;;;;;;15.95;8.98;;;;;;;9.78;87.05;102520.00;5053444;28;20040;-69
2021/12/13 07:12:48;;;;;;;17.90;10.90;;;;;;;9.90;86.94;102527.47;5053086;28;20061;-68
2021/12/13 07:15:25;;;;;;;16.98;9.05;;;;;;;9.82;87.24;102522.19;5052995;28;20036;-69
2021/12/13 07:18:09;;;;;;;15.10;9.40;;;;;;;9.90;87.05;102526.66;5053536;28;20106;-68
2021/12/13 07:20:44;;;;;;;15.80;9.32;;;;;;;9.92;86.82;102533.28;5053135;28;20049;-68
2021/12/13 07:23:09;;;;;;;19.10;9.40;;;;;;;9.84;87.03;102533.19;5053342;28;20460;-68
2021/12/13 07:25:38;;;;;;;19.90;9.55;;;;;;;9.79;87.15;102529.41;5035075;28;20028;-69
2021/12/13 07:28:04;;;;;;;13.40;9.50;;;;;;;9.64;88.19;102535.00;5052935;28;20247;-69
2021/12/13 07:30:31;;;;;;;16.15;9.30;;;;;;;9.69;87.87;102545.69;5035105;28;20029;-68
2021/12/13 07:33:01;;;;;;;16.77;9.90;;;;;;;9.72;87.76;102544.59;5018740;28;20112;-68
2021/12/13 07:35:29;;;;;;;15.50;10.15;;;;;;;9.80;87.56;102551.69;5034974;28;20021;-68
2021/12/13 07:38:06;;;;;;;16.77;10.65;;;;;;;9.73;88.19;102550.63;5034999;28;20116;-68
2021/12/13 07:40:43;;;;;;;18.40;10.52;;;;;;;9.77;87.48;102560.50;5053220;28;20051;-68
2021/12/13 07:43:20;;;;;;;23.20;11.50;;;;;;;9.73;87.32;102558.34;5052939;28;20036;-68
2021/12/13 07:45:54;;;;;;;17.98;10.70;;;;;;;9.77;87.51;102562.28;5053021;28;20025;-68
2021/12/13 07:48:36;;;;;;;18.83;11.50;;;;;;;9.71;87.45;102559.28;5054081;28;20025;-68
2021/12/13 07:51:08;;;;;;;21.87;11.57;;;;;;;9.71;87.90;102558.47;5038697;28;20037;-69
2021/12/13 07:53:44;;;;;;;20.52;12.60;;;;;;;9.71;87.69;102563.66;5038598;28;20488;-69
2021/12/13 07:56:12;;;;;;;23.85;11.90;;;;;;;9.69;87.60;102565.53;5057209;28;20100;-68
2021/12/13 07:58:42;;;;;;;26.13;12.60;;;;;;;9.70;88.27;102564.59;5056626;28;20068;-69
2021/12/13 08:01:22;;;;;;;24.00;12.43;;;;;;;9.70;87.64;102568.00;5056323;28;20500;-69
2021/12/13 08:04:15;;;;;;;21.25;12.82;;;;;;;9.73;88.40;102569.50;5056650;28;20063;-69
2021/12/13 08:06:52;;;;;;;25.13;13.55;;;;;;;9.77;87.63;102567.44;5048200;28;20028;-69
2021/12/13 08:09:22;;;;;;;20.33;12.57;;;;;;;9.77;87.74;102563.09;5038377;28;20383;-68
2021/12/13 08:11:53;;;;;;;23.17;12.95;;;;;;;9.85;87.24;102565.00;5056246;28;20032;-68
2021/12/13 08:14:32;;;;;;;21.42;12.73;;;;;;;9.78;87.96;102569.91;5038672;28;20040;-68
2021/12/13 08:17:08;;;;;;;23.73;13.48;;;;;;;9.84;87.74;102568.50;5056054;28;20032;-68
2021/12/13 08:19:34;;;;;;;24.35;13.68;;;;;;;9.69;88.14;102562.97;5056477;28;20388;-67
2021/12/13 08:22:02;;;;;;;24.88;14.48;;;;;;;9.70;88.44;102567.19;5055914;28;20021;-68
2021/12/13 08:24:40;;;;;;;26.67;14.40;;;;;;;9.68;88.26;102564.72;5055927;28;20033;-68
2021/12/13 08:27:13;;;;;;;24.90;14.20;;;;;;;9.68;88.58;102575.06;5055862;28;20476;-66
2021/12/13 08:29:39;;;;;;;;;;;;;;;9.71;88.44;102566.22;5056735;28;20452;-68
2021/12/13 08:32:18;;;;;;;25.70;13.70;;;;;;;9.71;88.21;102568.81;5037827;28;19915;-68
2021/12/13 08:34:56;;;;;;;26.55;13.68;;;;;;;9.70;88.15;102572.34;5056064;28;20021;-68
2021/12/13 08:37:26;;;;;;;27.83;14.10;;;;;;;9.76;88.58;102576.16;5055675;28;20431;-68
2021/12/13 08:39:57;;;;;;;25.77;13.57;;;;;;;9.71;88.46;102566.22;5037760;28;20021;-68
2021/12/13 08:42:26;;;;;;;25.67;14.00;;;;;;;9.83;87.76;102578.03;5037466;28;20087;-68
2021/12/13 08:45:16;;;;;;;26.67;14.15;;;;;;;9.86;88.26;102582.91;5037597;28;20068;-67
2021/12/13 08:47:49;;;;;;;27.20;13.38;;;;;;;9.83;87.78;102577.22;5037497;28;20162;-68
2021/12/13 08:50:26;;;;;;;27.70;13.35;;;;;;;9.79;88.09;102581.84;5037576;28;20029;-68
2021/12/13 08:53:00;;;;;;;26.98;12.65;;;;;;;9.89;87.13;102587.00;5055292;28;20025;-67
2021/12/13 08:55:31;;;;;;;23.83;12.90;;;;;;;9.98;87.36;102595.69;5055769;28;20036;-68
2021/12/13 08:58:15;;;;;;;24.23;12.88;;;;;;;9.89;86.92;102587.00;5055185;28;20025;-68
2021/12/13 09:00:52;;;;;;;27.60;12.65;;;;;;;9.96;87.11;102587.28;5054185;28;20103;-68
2021/12/13 09:03:32;;;;;;;28.00;13.05;;;;;;;9.96;86.63;102597.59;5055126;28;20033;-69
2021/12/13 09:06:04;;;;;;;25.67;12.70;;;;;;;9.93;87.07;102602.09;5055330;28;20491;-69
2021/12/13 09:09:05;;;;;;;22.98;12.15;;;;;;;9.82;87.76;102609.97;5037052;28;20028;-69
2021/12/13 09:11:40;;;;;;;23.33;12.13;;;;;;;9.87;87.11;102610.38;5049621;28;20118;-69
2021/12/13 09:14:12;;;;;;;23.73;12.57;;;;;;;9.78;87.54;102616.38;5055177;28;20033;-68
2021/12/13 09:16:55;;;;;;;23.83;12.40;;;;;;;9.89;87.24;102623.94;5055174;28;20100;-68
2021/12/13 09:19:53;;;;;;;23.33;12.02;;;;;;;9.96;86.83;102620.84;5054722;28;20084;-68
2021/12/13 09:22:29;;;;;;;27.02;12.30;;;;;;;9.96;86.33;102626.81;5040498;28;20052;-68
2021/12/13 09:25:09;;;;;;;19.38;11.15;;;;;;;9.96;86.87;102619.06;5054685;28;20028;-69
2021/12/13 09:27:56;;;;;;;23.42;11.52;;;;;;;9.84;86.72;102625.31;5036747;28;20543;-69
2021/12/13 09:30:47;;;;;;;22.55;11.57;;;;;;;9.96;86.67;102624.25;5036490;28;20119;-67
2021/12/13 09:33:20;;;;;;;20.63;11.40;;;;;;;10.09;86.14;102635.09;5044989;28;20090;-67
2021/12/13 09:35:53;;;;;;;23.95;11.98;;;;;;;10.04;86.11;102646.78;5055223;28;20032;-68
2021/12/13 09:38:27;;;;;;;22.33;11.80;;;;;;;10.11;86.31;102645.28;5054263;28;20033;-68
2021/12/13 09:41:21;;;;;;;21.35;11.70;;;;;;;10.14;85.76;102647.59;5036501;28;20032;-68
2021/12/13 09:44:04;;;;;;;27.02;11.68;;;;;;;10.23;85.76;102664.84;5054230;28;20471;-69
2021/12/13 09:46:35;;;;;;;22.45;11.63;;;;;;;10.25;85.69;102672.47;5054947;28;20094;-69
2021/12/13 09:49:11;;;;;;;25.33;11.57;;;;;;;10.20;86.78;102675.47;5036327;28;20464;-68
2021/12/13 09:55:01;;;;;;;22.20;11.77;;;;;;;10.35;85.68;102681.03;5054398;28;20039;-68
2021/12/13 09:57:49;;;;;;;23.27;11.38;;;;;;;10.07;86.49;102674.91;5054014;28;20036;-68
2021/12/13 10:00:29;;;;;;;21.15;11.27;;;;;;;10.24;85.97;102669.09;5043119;28;20041;-68
2021/12/13 10:03:01;;;;;;;25.63;11.70;;;;;;;10.41;85.19;102672.72;5036785;28;20364;-69
2021/12/13 10:05:31;;;;;;;18.77;10.68;;;;;;;10.48;85.20;102676.41;5053917;28;20391;-67
2021/12/13 10:08:04;;;;;;;19.95;11.15;;;;;;;10.36;85.22;102664.59;5053935;28;20092;-69
2021/12/13 10:10:34;;;;;;;19.60;10.97;;;;;;;10.57;84.69;102664.41;5053805;28;20029;-68
2021/12/13 10:13:08;;;;;;;22.77;11.57;;;;;;;10.46;84.72;102667.16;5035749;28;20060;-69
2021/12/13 10:15:38;;;;;;;21.95;11.23;;;;;;;10.42;84.84;102666.63;5053677;28;20053;-67
2021/12/13 10:18:09;;;;;;;23.33;11.55;;;;;;;10.39;84.83;102667.72;5053680;28;20566;-68
2021/12/13 10:20:42;;;;;;;19.75;10.70;;;;;;;10.52;84.65;102651.06;5053360;28;20057;-68
2021/12/13 10:23:10;;;;;;;;;;;;;;;10.46;84.97;102657.63;5053917;28;20025;-69
2021/12/13 10:25:39;;;;;;;21.30;11.23;;;;;;;10.48;84.90;102650.56;5035729;28;20352;-68
2021/12/13 10:28:10;;;;;;;20.90;10.93;;;;;;;10.54;83.99;102644.81;5035631;28;20021;-68
2021/12/13 10:30:41;;;;;;;21.63;10.95;;;;;;;10.33;85.51;102655.34;5053445;28;20079;-68
2021/12/13 10:33:07;;;;;;;21.17;11.02;;;;;;;10.44;84.69;102648.38;5053476;28;20090;-67
2021/12/13 10:35:37;;;;;;;21.10;11.20;;;;;;;10.55;84.65;102655.97;5053350;28;20087;-68
2021/12/13 10:38:16;;;;;;;20.05;11.13;;;;;;;10.50;85.36;102660.72;5035365;28;20029;-69
2021/12/13 10:40:47;;;;;;;20.77;10.50;;;;;;;10.53;84.72;102666.47;5035468;28;20059;-68
2021/12/13 10:43:17;;;;;;;21.15;10.82;;;;;;;10.45;84.80;102657.78;5053266;28;20053;-68
2021/12/13 10:46:11;;;;;;;22.77;11.07;;;;;;;10.55;84.96;102661.13;5053240;28;20021;-68
2021/12/13 10:48:44;;;;;;;21.33;10.45;;;;;;;10.36;84.98;102660.25;5053194;28;20028;-68
2021/12/13 10:51:24;;;;;;;24.02;11.27;;;;;;;10.44;85.24;102664.69;5053291;28;20033;-68
2021/12/13 10:53:52;;;;;;;23.95;10.60;;;;;;;10.39;85.19;102667.72;5053043;28;20032;-68
2021/12/13 10:56:23;;;;;;;20.30;10.75;;;;;;;10.53;85.05;102671.63;5035204;28;20467;-68
2021/12/13 10:58:51;;;;;;;20.00;10.90;;;;;;;10.45;85.16;102673.28;5035111;28;20029;-67
2021/12/13 11:01:27;;;;;;;20.63;10.77;;;;;;;10.63;84.95;102665.63;5052952;28;20040;-68
2021/12/13 11:03:54;;;;;;;22.08;11.48;;;;;;;10.69;84.25;102655.50;5053183;28;20052;-68
2021/12/13 11:06:22;;;;;;;22.20;10.77;;;;;;;10.53;84.55;102652.69;5053249;28;20024;-68
2021/12/13 11:08:48;;;;;;;18.98;10.73;;;;;;;10.44;85.16;102656.13;5035017;28;20017;-67
2021/12/13 11:11:31;;;;;;;21.55;11.02;;;;;;;10.38;85.36;102650.56;5053090;28;20021;-69
2021/12/13 11:14:00;;;;;;;22.98;10.95;;;;;;;10.61;84.62;102647.63;5053601;28;20102;-67
2021/12/13 11:16:36;;;;;;;18.70;10.73;;;;;;;10.46;84.33;102656.81;5053191;28;20028;-69
2021/12/13 11:19:04;;;;;;;20.63;9.95;;;;;;;10.52;84.78;102651.06;5052675;28;20049;-69
2021/12/13 11:21:35;;;;;;;18.58;10.10;;;;;;;10.47;84.21;102664.44;5052759;28;20016;-69
2021/12/13 11:24:01;;;;;;;18.73;10.38;;;;;;;10.55;84.15;102653.38;5055336;28;20074;-69
2021/12/13 11:26:31;;;;;;;19.40;10.70;;;;;;;10.49;84.24;102654.75;5056833;28;20506;-69
2021/12/13 11:28:58;;;;;;;20.73;10.20;;;;;;;10.54;84.10;102654.34;5056729;28;20031;-69
2021/12/13 11:31:29;;;;;;;19.77;10.13;;;;;;;10.66;83.62;102655.78;5056734;28;20471;-69
2021/12/13 11:34:04;;;;;;;22.85;10.30;;;;;;;10.57;84.21;102647.13;5056653;28;20029;-68
2021/12/13 11:37:10;;;;;;;18.80;9.77;;;;;;;10.57;84.65;102647.13;5056874;28;20043;-68
2021/12/13 11:39:38;;;;;;;21.92;9.63;;;;;;;10.71;83.52;102643.25;5056558;28;20524;-68
2021/12/13 11:42:23;;;;;;;19.42;10.18;;;;;;;10.69;83.78;102642.59;5056703;28;20029;-68
2021/12/13 11:45:32;;;;;;;21.45;9.98;;;;;;;10.73;83.08;102638.78;5039071;28;20341;-68
2021/12/13 11:48:15;;;;;;;19.15;9.50;;;;;;;10.85;83.18;102634.22;5056335;28;20083;-67
2021/12/13 11:51:15;;;;;;;22.60;10.07;;;;;;;10.76;83.68;102641.06;5056337;28;20025;-67
2021/12/13 11:54:20;;;;;;;22.15;9.77;;;;;;;10.68;82.77;102648.72;5038861;28;20120;-67
2021/12/13 11:57:21;;;;;;;18.88;9.82;;;;;;;10.64;83.58;102643.97;5038387;28;20063;-67
2021/12/13 12:00:02;;;;;;;19.08;9.43;;;;;;;10.74;83.30;102637.00;5026054;28;20208;-66
2021/12/13 12:02:59;;;;;;;17.13;9.23;;;;;;;10.62;82.91;102633.78;5055904;28;20036;-67